JAL8670 RCTP-RJGG
Flight info
| Callsign | JAL8670 |
|---|---|
| Flight time | 2h 20m |
| Altitude | 35000 |
| Route | MOLKA1A MOLKA M750 IMPAL Y755 CARDS |
| Aircraft | B738/M-SDE2E3FGHIRWXY/LB1 |
Departure
| Time | 2026-05-07 06:47 |
|---|---|
| Airport | Taiwan Taoyuan International Airport (RCTP) |
Arrival
| Time | 2026-05-07 09:08 |
|---|---|
| Airport | Chubu Centrair International Airport (RJGG) |
| Time | Latitude | Longitude | Altitude | Speed | Heading |
|---|---|---|---|---|---|
| 2026-05-07 06:28 | 25.08091 | 121.23263 | 79 ft | 0 kts | 139° |
| 2026-05-07 06:35 | 25.08097 | 121.23258 | 84 ft | 2 kts | 139° |
| 2026-05-07 06:35 | 25.08107 | 121.23248 | 82 ft | 2 kts | 139° |
| 2026-05-07 06:36 | 25.08118 | 121.23237 | 81 ft | 2 kts | 139° |
| 2026-05-07 06:36 | 25.08128 | 121.23227 | 83 ft | 2 kts | 139° |
| 2026-05-07 06:36 | 25.08139 | 121.23217 | 82 ft | 2 kts | 142° |
| 2026-05-07 06:36 | 25.08149 | 121.23209 | 85 ft | 2 kts | 152° |
| 2026-05-07 06:37 | 25.08156 | 121.23205 | 83 ft | 1 kts | 178° |
| 2026-05-07 06:37 | 25.08163 | 121.23206 | 82 ft | 1 kts | 209° |
| 2026-05-07 06:37 | 25.08168 | 121.23209 | 79 ft | 1 kts | 223° |
| 2026-05-07 06:37 | 25.08172 | 121.23214 | 79 ft | 1 kts | 227° |
| 2026-05-07 06:38 | 25.08174 | 121.23216 | 79 ft | 0 kts | 228° |
| 2026-05-07 06:39 | 25.08170 | 121.23211 | 79 ft | 2 kts | 228° |
| 2026-05-07 06:39 | 25.08158 | 121.23196 | 88 ft | 4 kts | 228° |
| 2026-05-07 06:39 | 25.08128 | 121.23158 | 82 ft | 9 kts | 229° |
| 2026-05-07 06:40 | 25.08073 | 121.23087 | 81 ft | 15 kts | 230° |
| 2026-05-07 06:40 | 25.08002 | 121.22996 | 80 ft | 16 kts | 229° |
| 2026-05-07 06:40 | 25.07927 | 121.22900 | 84 ft | 16 kts | 229° |
| 2026-05-07 06:40 | 25.07855 | 121.22807 | 83 ft | 16 kts | 229° |
| 2026-05-07 06:41 | 25.07785 | 121.22718 | 79 ft | 15 kts | 229° |
| 2026-05-07 06:41 | 25.07794 | 121.22620 | 82 ft | 14 kts | 304° |
| 2026-05-07 06:41 | 25.07762 | 121.22524 | 80 ft | 15 kts | 230° |
| 2026-05-07 06:41 | 25.07694 | 121.22436 | 79 ft | 16 kts | 230° |
| 2026-05-07 06:42 | 25.07623 | 121.22347 | 82 ft | 15 kts | 228° |
| 2026-05-07 06:42 | 25.07554 | 121.22261 | 83 ft | 15 kts | 229° |
| 2026-05-07 06:42 | 25.07487 | 121.22176 | 80 ft | 15 kts | 229° |
| 2026-05-07 06:42 | 25.07417 | 121.22087 | 81 ft | 16 kts | 229° |
| 2026-05-07 06:43 | 25.07341 | 121.21997 | 79 ft | 16 kts | 209° |
| 2026-05-07 06:43 | 25.07247 | 121.22044 | 83 ft | 16 kts | 139° |
| 2026-05-07 06:43 | 25.07158 | 121.22127 | 84 ft | 18 kts | 139° |
| 2026-05-07 06:43 | 25.07056 | 121.22224 | 82 ft | 21 kts | 139° |
| 2026-05-07 06:44 | 25.06940 | 121.22333 | 80 ft | 23 kts | 139° |
| 2026-05-07 06:44 | 25.06821 | 121.22446 | 82 ft | 23 kts | 139° |
| 2026-05-07 06:44 | 25.06706 | 121.22555 | 80 ft | 20 kts | 139° |
| 2026-05-07 06:44 | 25.06606 | 121.22548 | 84 ft | 17 kts | 229° |
| 2026-05-07 06:45 | 25.06531 | 121.22452 | 84 ft | 16 kts | 229° |
| 2026-05-07 06:45 | 25.06457 | 121.22360 | 82 ft | 16 kts | 229° |
| 2026-05-07 06:45 | 25.06383 | 121.22273 | 82 ft | 16 kts | 212° |
| 2026-05-07 06:45 | 25.06276 | 121.22252 | 86 ft | 15 kts | 186° |
| 2026-05-07 06:46 | 25.06179 | 121.22279 | 87 ft | 15 kts | 142° |
| 2026-05-07 06:46 | 25.06116 | 121.22360 | 93 ft | 14 kts | 98° |
| 2026-05-07 06:46 | 25.06150 | 121.22440 | 98 ft | 0 kts | 49° |
| 2026-05-07 06:46 | 25.06166 | 121.22461 | 98 ft | 18 kts | 49° |
| 2026-05-07 06:47 | 25.06406 | 121.22764 | 96 ft | 86 kts | 49° |
| 2026-05-07 06:47 | 25.06931 | 121.23427 | 97 ft | 142 kts | 49° |
| 2026-05-07 06:47 | 25.07685 | 121.24349 | 219 ft | 176 kts | 46° |
| 2026-05-07 06:47 | 25.08507 | 121.25416 | 779 ft | 186 kts | 47° |
| 2026-05-07 06:48 | 25.09364 | 121.26495 | 1455 ft | 186 kts | 48° |
| 2026-05-07 06:48 | 25.10197 | 121.27596 | 2102 ft | 196 kts | 49° |
| 2026-05-07 06:48 | 25.11135 | 121.28847 | 2396 ft | 225 kts | 50° |
| 2026-05-07 06:48 | 25.12219 | 121.30219 | 2622 ft | 249 kts | 46° |
| 2026-05-07 06:49 | 25.13475 | 121.31674 | 2878 ft | 272 kts | 45° |
| 2026-05-07 06:49 | 25.14809 | 121.33196 | 3603 ft | 278 kts | 45° |
| 2026-05-07 06:49 | 25.16154 | 121.34730 | 4542 ft | 280 kts | 46° |
| 2026-05-07 06:49 | 25.17519 | 121.36292 | 5318 ft | 286 kts | 46° |
| 2026-05-07 06:50 | 25.18913 | 121.37891 | 6082 ft | 292 kts | 46° |
| 2026-05-07 06:50 | 25.20330 | 121.39519 | 6811 ft | 296 kts | 46° |
| 2026-05-07 06:50 | 25.21763 | 121.41168 | 7547 ft | 299 kts | 46° |
| 2026-05-07 06:50 | 25.23212 | 121.42836 | 8266 ft | 303 kts | 45° |
| 2026-05-07 06:51 | 25.24685 | 121.44533 | 8987 ft | 308 kts | 45° |
| 2026-05-07 06:51 | 25.26175 | 121.46250 | 9727 ft | 312 kts | 45° |
| 2026-05-07 06:51 | 25.27689 | 121.47996 | 10317 ft | 320 kts | 45° |
| 2026-05-07 06:51 | 25.29015 | 121.50071 | 10472 ft | 345 kts | 68° |
| 2026-05-07 06:52 | 25.29424 | 121.52727 | 10687 ft | 362 kts | 96° |
| 2026-05-07 06:52 | 25.29121 | 121.55515 | 11142 ft | 371 kts | 91° |
| 2026-05-07 06:52 | 25.29400 | 121.58364 | 11743 ft | 375 kts | 79° |
| 2026-05-07 06:52 | 25.29992 | 121.61182 | 12374 ft | 378 kts | 75° |
| 2026-05-07 06:53 | 25.30668 | 121.64016 | 12902 ft | 385 kts | 75° |
| 2026-05-07 06:53 | 25.31347 | 121.66900 | 13430 ft | 390 kts | 75° |
| 2026-05-07 06:53 | 25.31999 | 121.69822 | 14029 ft | 394 kts | 76° |
| 2026-05-07 06:53 | 25.32624 | 121.72779 | 14583 ft | 396 kts | 77° |
| 2026-05-07 06:54 | 25.33228 | 121.75760 | 15113 ft | 399 kts | 77° |
| 2026-05-07 06:54 | 25.33824 | 121.78773 | 15619 ft | 403 kts | 77° |
| 2026-05-07 06:54 | 25.34416 | 121.81812 | 16133 ft | 406 kts | 78° |
| 2026-05-07 06:54 | 25.35008 | 121.84871 | 16652 ft | 409 kts | 78° |
| 2026-05-07 06:55 | 25.35604 | 121.87953 | 17161 ft | 412 kts | 78° |
| 2026-05-07 06:55 | 25.36000 | 121.90004 | 17483 ft | 414 kts | 78° |
| 2026-05-07 06:55 | 25.36603 | 121.93128 | 17983 ft | 417 kts | 78° |
| 2026-05-07 06:55 | 25.37209 | 121.96271 | 18438 ft | 420 kts | 78° |
| 2026-05-07 06:56 | 25.37820 | 121.99437 | 18862 ft | 422 kts | 78° |
| 2026-05-07 06:56 | 25.38433 | 122.02618 | 19292 ft | 425 kts | 78° |
| 2026-05-07 06:56 | 25.39050 | 122.05825 | 19708 ft | 427 kts | 78° |
| 2026-05-07 06:56 | 25.39667 | 122.09037 | 20123 ft | 430 kts | 78° |
| 2026-05-07 06:57 | 25.40290 | 122.12281 | 20525 ft | 432 kts | 78° |
| 2026-05-07 06:57 | 25.40916 | 122.15546 | 20924 ft | 435 kts | 78° |
| 2026-05-07 06:57 | 25.41544 | 122.18822 | 21313 ft | 438 kts | 78° |
| 2026-05-07 06:57 | 25.42239 | 122.22111 | 21696 ft | 440 kts | 73° |
| 2026-05-07 06:58 | 25.43200 | 122.25338 | 22084 ft | 442 kts | 69° |
| 2026-05-07 06:58 | 25.44302 | 122.28526 | 22474 ft | 445 kts | 68° |
| 2026-05-07 06:58 | 25.45451 | 122.31716 | 22853 ft | 447 kts | 68° |
| 2026-05-07 06:58 | 25.46601 | 122.34927 | 23202 ft | 450 kts | 68° |
| 2026-05-07 06:59 | 25.47734 | 122.38155 | 23558 ft | 452 kts | 68° |
| 2026-05-07 06:59 | 25.48854 | 122.41419 | 23846 ft | 455 kts | 69° |
| 2026-05-07 06:59 | 25.49966 | 122.44706 | 24134 ft | 457 kts | 69° |
| 2026-05-07 06:59 | 25.51075 | 122.48012 | 24432 ft | 459 kts | 69° |
| 2026-05-07 07:00 | 25.52181 | 122.51327 | 24721 ft | 461 kts | 69° |
| 2026-05-07 07:00 | 25.53294 | 122.54666 | 25004 ft | 463 kts | 69° |
| 2026-05-07 07:00 | 25.54412 | 122.58021 | 25302 ft | 465 kts | 69° |
| 2026-05-07 07:00 | 25.55535 | 122.61389 | 25580 ft | 467 kts | 69° |
| 2026-05-07 07:01 | 25.56663 | 122.64774 | 25864 ft | 469 kts | 69° |
| 2026-05-07 07:01 | 25.57792 | 122.68165 | 26134 ft | 471 kts | 69° |
| 2026-05-07 07:01 | 25.58929 | 122.71581 | 26411 ft | 473 kts | 69° |
| 2026-05-07 07:01 | 25.60070 | 122.75013 | 26680 ft | 475 kts | 69° |
| 2026-05-07 07:02 | 25.61212 | 122.78451 | 26939 ft | 478 kts | 69° |
| 2026-05-07 07:02 | 25.62364 | 122.81923 | 27195 ft | 480 kts | 68° |
| 2026-05-07 07:02 | 25.63515 | 122.85394 | 27448 ft | 482 kts | 68° |
| 2026-05-07 07:02 | 25.64678 | 122.88888 | 27698 ft | 484 kts | 68° |
| 2026-05-07 07:03 | 25.65857 | 122.92393 | 27938 ft | 486 kts | 68° |
| 2026-05-07 07:03 | 25.67043 | 122.95901 | 28192 ft | 488 kts | 68° |
| 2026-05-07 07:03 | 25.68222 | 122.99386 | 28429 ft | 490 kts | 68° |
| 2026-05-07 07:03 | 25.69420 | 123.02932 | 28653 ft | 492 kts | 68° |
| 2026-05-07 07:04 | 25.70623 | 123.06500 | 28884 ft | 494 kts | 68° |
| 2026-05-07 07:04 | 25.71827 | 123.10080 | 29106 ft | 496 kts | 68° |
| 2026-05-07 07:04 | 25.73033 | 123.13672 | 29327 ft | 498 kts | 68° |
| 2026-05-07 07:04 | 25.74243 | 123.17280 | 29555 ft | 500 kts | 68° |
| 2026-05-07 07:05 | 25.75455 | 123.20900 | 29759 ft | 502 kts | 68° |
| 2026-05-07 07:05 | 25.76672 | 123.24535 | 29983 ft | 504 kts | 68° |
| 2026-05-07 07:05 | 25.77888 | 123.28171 | 30209 ft | 504 kts | 68° |
| 2026-05-07 07:05 | 25.79104 | 123.31815 | 30541 ft | 502 kts | 68° |
| 2026-05-07 07:06 | 25.80310 | 123.35429 | 30911 ft | 499 kts | 68° |
| 2026-05-07 07:06 | 25.81511 | 123.39032 | 31240 ft | 497 kts | 68° |
| 2026-05-07 07:06 | 25.82709 | 123.42628 | 31513 ft | 496 kts | 68° |
| 2026-05-07 07:06 | 25.83905 | 123.46221 | 31805 ft | 495 kts | 67° |
| 2026-05-07 07:07 | 25.85094 | 123.49795 | 32130 ft | 494 kts | 67° |
| 2026-05-07 07:07 | 25.86280 | 123.53366 | 32470 ft | 492 kts | 67° |
| 2026-05-07 07:07 | 25.87731 | 123.56770 | 32731 ft | 485 kts | 52° |
| 2026-05-07 07:07 | 25.89903 | 123.59578 | 33015 ft | 475 kts | 37° |
| 2026-05-07 07:08 | 25.92557 | 123.61659 | 33336 ft | 463 kts | 22° |
| 2026-05-07 07:08 | 25.95443 | 123.63206 | 33692 ft | 459 kts | 20° |
| 2026-05-07 07:08 | 25.98341 | 123.64672 | 33996 ft | 457 kts | 19° |
| 2026-05-07 07:08 | 26.01238 | 123.66120 | 34228 ft | 456 kts | 19° |
| 2026-05-07 07:09 | 26.04129 | 123.67576 | 34442 ft | 456 kts | 19° |
| 2026-05-07 07:09 | 26.07003 | 123.69044 | 34672 ft | 455 kts | 19° |
| 2026-05-07 07:09 | 26.09872 | 123.70527 | 34917 ft | 454 kts | 19° |
| 2026-05-07 07:09 | 26.12746 | 123.72023 | 34916 ft | 458 kts | 20° |
| 2026-05-07 07:10 | 26.18504 | 123.75039 | 34929 ft | 456 kts | 20° |
| 2026-05-07 07:10 | 26.24171 | 123.78017 | 34938 ft | 452 kts | 20° |
| 2026-05-07 07:11 | 26.29849 | 123.81000 | 34938 ft | 450 kts | 19° |
| 2026-05-07 07:11 | 26.35497 | 123.83967 | 34939 ft | 449 kts | 19° |
| 2026-05-07 07:12 | 26.41151 | 123.86940 | 34946 ft | 449 kts | 19° |
| 2026-05-07 07:12 | 26.46814 | 123.89921 | 34947 ft | 451 kts | 19° |
| 2026-05-07 07:13 | 26.52500 | 123.92918 | 34944 ft | 453 kts | 19° |
| 2026-05-07 07:13 | 26.58219 | 123.95938 | 34948 ft | 456 kts | 19° |
| 2026-05-07 07:14 | 26.63968 | 123.98979 | 34947 ft | 459 kts | 21° |
| 2026-05-07 07:14 | 26.66664 | 124.00957 | 34923 ft | 472 kts | 38° |
| 2026-05-07 07:14 | 26.68896 | 124.03685 | 34956 ft | 478 kts | 45° |
| 2026-05-07 07:15 | 26.73107 | 124.09469 | 34950 ft | 481 kts | 46° |
| 2026-05-07 07:15 | 26.77326 | 124.15287 | 34938 ft | 481 kts | 45° |
| 2026-05-07 07:16 | 26.81593 | 124.21060 | 34942 ft | 481 kts | 45° |
| 2026-05-07 07:16 | 26.85877 | 124.26817 | 34941 ft | 481 kts | 45° |
| 2026-05-07 07:17 | 26.90149 | 124.32567 | 34943 ft | 480 kts | 45° |
| 2026-05-07 07:17 | 26.94409 | 124.38316 | 34945 ft | 479 kts | 45° |
| 2026-05-07 07:18 | 26.98658 | 124.44054 | 34944 ft | 478 kts | 45° |
| 2026-05-07 07:18 | 27.02905 | 124.49777 | 34946 ft | 477 kts | 45° |
| 2026-05-07 07:19 | 27.07144 | 124.55489 | 34950 ft | 476 kts | 45° |
| 2026-05-07 07:19 | 27.11373 | 124.61199 | 34937 ft | 476 kts | 45° |
| 2026-05-07 07:20 | 27.15601 | 124.66917 | 34945 ft | 476 kts | 45° |
| 2026-05-07 07:20 | 27.19831 | 124.72647 | 34955 ft | 476 kts | 45° |
| 2026-05-07 07:21 | 27.24059 | 124.78380 | 34954 ft | 477 kts | 45° |
| 2026-05-07 07:21 | 27.28295 | 124.84133 | 34948 ft | 478 kts | 46° |
| 2026-05-07 07:22 | 27.32502 | 124.89854 | 34955 ft | 479 kts | 46° |
| 2026-05-07 07:22 | 27.36746 | 124.95633 | 34959 ft | 479 kts | 46° |
| 2026-05-07 07:23 | 27.40998 | 125.01425 | 34958 ft | 480 kts | 45° |
| 2026-05-07 07:23 | 27.45277 | 125.07199 | 34956 ft | 480 kts | 45° |
| 2026-05-07 07:24 | 27.49563 | 125.12971 | 34960 ft | 481 kts | 45° |
| 2026-05-07 07:24 | 27.53853 | 125.18763 | 34956 ft | 481 kts | 45° |
| 2026-05-07 07:25 | 27.60279 | 125.27465 | 34965 ft | 482 kts | 45° |
| 2026-05-07 07:26 | 27.64564 | 125.33279 | 34965 ft | 482 kts | 45° |
| 2026-05-07 07:26 | 27.68841 | 125.39090 | 34963 ft | 482 kts | 46° |
| 2026-05-07 07:27 | 27.73122 | 125.44914 | 34964 ft | 482 kts | 46° |
| 2026-05-07 07:27 | 27.77400 | 125.50742 | 34963 ft | 482 kts | 46° |
| 2026-05-07 07:28 | 27.81674 | 125.56571 | 34960 ft | 482 kts | 46° |
| 2026-05-07 07:28 | 27.85922 | 125.62374 | 34967 ft | 482 kts | 46° |
| 2026-05-07 07:29 | 27.90191 | 125.68213 | 34961 ft | 482 kts | 46° |
| 2026-05-07 07:29 | 27.94457 | 125.74056 | 34965 ft | 482 kts | 46° |
| 2026-05-07 07:30 | 27.98723 | 125.79906 | 34966 ft | 482 kts | 46° |
| 2026-05-07 07:30 | 28.02994 | 125.85773 | 34966 ft | 482 kts | 46° |
| 2026-05-07 07:31 | 28.07258 | 125.91637 | 34969 ft | 483 kts | 46° |
| 2026-05-07 07:31 | 28.11521 | 125.97508 | 34968 ft | 483 kts | 46° |
| 2026-05-07 07:32 | 28.15818 | 126.03434 | 34967 ft | 483 kts | 46° |
| 2026-05-07 07:32 | 28.20050 | 126.09279 | 34968 ft | 483 kts | 46° |
| 2026-05-07 07:33 | 28.24310 | 126.15170 | 34970 ft | 483 kts | 46° |
| 2026-05-07 07:33 | 28.28569 | 126.21068 | 34976 ft | 483 kts | 46° |
| 2026-05-07 07:34 | 28.32827 | 126.26973 | 34966 ft | 484 kts | 46° |
| 2026-05-07 07:34 | 28.37090 | 126.32893 | 34963 ft | 484 kts | 46° |
| 2026-05-07 07:35 | 28.41343 | 126.38808 | 34970 ft | 484 kts | 46° |
| 2026-05-07 07:35 | 28.45594 | 126.44728 | 34969 ft | 484 kts | 46° |
| 2026-05-07 07:36 | 28.49842 | 126.50653 | 34968 ft | 484 kts | 46° |
| 2026-05-07 07:36 | 28.54096 | 126.56594 | 34963 ft | 484 kts | 46° |
| 2026-05-07 07:37 | 28.58343 | 126.62533 | 34968 ft | 484 kts | 46° |
| 2026-05-07 07:37 | 28.62591 | 126.68482 | 34979 ft | 484 kts | 47° |
| 2026-05-07 07:38 | 28.66840 | 126.74443 | 34972 ft | 485 kts | 47° |
| 2026-05-07 07:38 | 28.71085 | 126.80405 | 34969 ft | 485 kts | 47° |
| 2026-05-07 07:39 | 28.75330 | 126.86376 | 34966 ft | 485 kts | 47° |
| 2026-05-07 07:39 | 28.79575 | 126.92355 | 34973 ft | 485 kts | 47° |
| 2026-05-07 07:40 | 28.83819 | 126.98342 | 34967 ft | 486 kts | 47° |
| 2026-05-07 07:40 | 28.88070 | 127.04347 | 34968 ft | 486 kts | 47° |
| 2026-05-07 07:41 | 28.92312 | 127.10347 | 34969 ft | 486 kts | 47° |
| 2026-05-07 07:41 | 28.95841 | 127.15347 | 34970 ft | 486 kts | 47° |
| 2026-05-07 07:42 | 29.00083 | 127.21364 | 34968 ft | 487 kts | 47° |
| 2026-05-07 07:42 | 29.04330 | 127.27397 | 34966 ft | 487 kts | 47° |
| 2026-05-07 07:43 | 29.08567 | 127.33425 | 34967 ft | 487 kts | 47° |
| 2026-05-07 07:43 | 29.12801 | 127.39457 | 34966 ft | 486 kts | 47° |
| 2026-05-07 07:44 | 29.17032 | 127.45493 | 34967 ft | 486 kts | 47° |
| 2026-05-07 07:44 | 29.21267 | 127.51544 | 34967 ft | 486 kts | 47° |
| 2026-05-07 07:45 | 29.25492 | 127.57589 | 34968 ft | 486 kts | 47° |
| 2026-05-07 07:45 | 29.29715 | 127.63642 | 34968 ft | 487 kts | 47° |
| 2026-05-07 07:46 | 29.33937 | 127.69702 | 34966 ft | 487 kts | 47° |
| 2026-05-07 07:46 | 29.38167 | 127.75781 | 34968 ft | 487 kts | 47° |
| 2026-05-07 07:47 | 29.42391 | 127.81862 | 34969 ft | 488 kts | 48° |
| 2026-05-07 07:47 | 29.46618 | 127.87957 | 34962 ft | 489 kts | 48° |
| 2026-05-07 07:48 | 29.50851 | 127.94068 | 34967 ft | 490 kts | 48° |
| 2026-05-07 07:48 | 29.55097 | 128.00203 | 34966 ft | 491 kts | 48° |
| 2026-05-07 07:49 | 29.59346 | 128.06341 | 34965 ft | 491 kts | 48° |
| 2026-05-07 07:49 | 29.63598 | 128.12495 | 34968 ft | 492 kts | 48° |
| 2026-05-07 07:50 | 29.67853 | 128.18664 | 34966 ft | 493 kts | 48° |
| 2026-05-07 07:50 | 29.72118 | 128.24859 | 34965 ft | 494 kts | 49° |
| 2026-05-07 07:51 | 29.76379 | 128.31057 | 34968 ft | 494 kts | 49° |
| 2026-05-07 07:51 | 29.80641 | 128.37266 | 34961 ft | 495 kts | 49° |
| 2026-05-07 07:52 | 29.84904 | 128.43484 | 34962 ft | 495 kts | 49° |
| 2026-05-07 07:52 | 29.89173 | 128.49723 | 34964 ft | 495 kts | 49° |
| 2026-05-07 07:53 | 29.93434 | 128.55959 | 34964 ft | 495 kts | 49° |
| 2026-05-07 07:53 | 29.97691 | 128.62200 | 34962 ft | 495 kts | 49° |
| 2026-05-07 07:54 | 30.01944 | 128.68442 | 34964 ft | 495 kts | 49° |
| 2026-05-07 07:54 | 30.06167 | 128.74652 | 34961 ft | 494 kts | 49° |
| 2026-05-07 07:55 | 30.10430 | 128.80931 | 34961 ft | 493 kts | 49° |
| 2026-05-07 07:55 | 30.14628 | 128.87123 | 34959 ft | 493 kts | 49° |
| 2026-05-07 07:56 | 30.18873 | 128.93395 | 34962 ft | 492 kts | 48° |
| 2026-05-07 07:56 | 30.23064 | 128.99594 | 34959 ft | 491 kts | 48° |
| 2026-05-07 07:57 | 30.27269 | 129.05823 | 34962 ft | 491 kts | 48° |
| 2026-05-07 07:57 | 30.31460 | 129.12040 | 34960 ft | 490 kts | 48° |
| 2026-05-07 07:58 | 30.35647 | 129.18262 | 34960 ft | 490 kts | 48° |
| 2026-05-07 07:58 | 30.39829 | 129.24486 | 34959 ft | 490 kts | 48° |
| 2026-05-07 07:59 | 30.44013 | 129.30724 | 34959 ft | 490 kts | 47° |
| 2026-05-07 07:59 | 30.48187 | 129.36956 | 34958 ft | 490 kts | 47° |
| 2026-05-07 08:00 | 30.52359 | 129.43195 | 34956 ft | 490 kts | 47° |
| 2026-05-07 08:00 | 30.56530 | 129.49442 | 34956 ft | 490 kts | 47° |
| 2026-05-07 08:01 | 30.60708 | 129.55710 | 34956 ft | 491 kts | 47° |
| 2026-05-07 08:01 | 30.64880 | 129.61979 | 34957 ft | 491 kts | 47° |
| 2026-05-07 08:02 | 30.69053 | 129.68259 | 34948 ft | 491 kts | 47° |
| 2026-05-07 08:02 | 30.73224 | 129.74548 | 34956 ft | 492 kts | 47° |
| 2026-05-07 08:03 | 30.77402 | 129.80856 | 34958 ft | 492 kts | 48° |
| 2026-05-07 08:03 | 30.81573 | 129.87163 | 34957 ft | 492 kts | 48° |
| 2026-05-07 08:04 | 30.85662 | 129.93560 | 34955 ft | 495 kts | 52° |
| 2026-05-07 08:04 | 30.89327 | 130.00352 | 34959 ft | 496 kts | 55° |
| 2026-05-07 08:05 | 30.92890 | 130.07248 | 34956 ft | 496 kts | 55° |
| 2026-05-07 08:05 | 30.96473 | 130.14107 | 34953 ft | 495 kts | 55° |
| 2026-05-07 08:06 | 31.00082 | 130.20938 | 34953 ft | 495 kts | 54° |
| 2026-05-07 08:06 | 31.03692 | 130.27757 | 34952 ft | 494 kts | 55° |
| 2026-05-07 08:07 | 31.07297 | 130.34580 | 34955 ft | 493 kts | 55° |
| 2026-05-07 08:07 | 31.10885 | 130.41387 | 34955 ft | 492 kts | 55° |
| 2026-05-07 08:08 | 31.14462 | 130.48188 | 34952 ft | 491 kts | 55° |
| 2026-05-07 08:08 | 31.18031 | 130.54985 | 34959 ft | 491 kts | 55° |
| 2026-05-07 08:09 | 31.21599 | 130.61792 | 34948 ft | 491 kts | 55° |
| 2026-05-07 08:09 | 31.25154 | 130.68586 | 34956 ft | 490 kts | 56° |
| 2026-05-07 08:10 | 31.28700 | 130.75374 | 34953 ft | 489 kts | 56° |
| 2026-05-07 08:10 | 31.32237 | 130.82159 | 34956 ft | 489 kts | 56° |
| 2026-05-07 08:11 | 31.35750 | 130.88908 | 34950 ft | 488 kts | 56° |
| 2026-05-07 08:11 | 31.39297 | 130.95734 | 34950 ft | 488 kts | 56° |
| 2026-05-07 08:12 | 31.42814 | 131.02515 | 34952 ft | 487 kts | 56° |
| 2026-05-07 08:12 | 31.46324 | 131.09295 | 34939 ft | 487 kts | 56° |
| 2026-05-07 08:13 | 31.49810 | 131.16040 | 34957 ft | 486 kts | 56° |
| 2026-05-07 08:13 | 31.53310 | 131.22825 | 34941 ft | 487 kts | 57° |
| 2026-05-07 08:14 | 31.56805 | 131.29613 | 34936 ft | 486 kts | 57° |
| 2026-05-07 08:14 | 31.60295 | 131.36401 | 34948 ft | 486 kts | 57° |
| 2026-05-07 08:15 | 31.63786 | 131.43208 | 34932 ft | 486 kts | 57° |
| 2026-05-07 08:15 | 31.67264 | 131.50008 | 34922 ft | 486 kts | 57° |
| 2026-05-07 08:16 | 31.70734 | 131.56807 | 34923 ft | 485 kts | 57° |
| 2026-05-07 08:16 | 31.74222 | 131.63651 | 34939 ft | 485 kts | 57° |
| 2026-05-07 08:17 | 31.77671 | 131.70431 | 34937 ft | 486 kts | 57° |
| 2026-05-07 08:17 | 31.81155 | 131.77293 | 34936 ft | 486 kts | 57° |
| 2026-05-07 08:18 | 31.84612 | 131.84115 | 34941 ft | 486 kts | 57° |
| 2026-05-07 08:18 | 31.88072 | 131.90953 | 34939 ft | 486 kts | 57° |
| 2026-05-07 08:19 | 31.91501 | 131.97743 | 34932 ft | 486 kts | 57° |
| 2026-05-07 08:19 | 31.94951 | 132.04588 | 34944 ft | 486 kts | 57° |
| 2026-05-07 08:20 | 31.98401 | 132.11443 | 34939 ft | 487 kts | 57° |
| 2026-05-07 08:20 | 32.01849 | 132.18308 | 34937 ft | 487 kts | 57° |
| 2026-05-07 08:21 | 32.05302 | 132.25196 | 34946 ft | 488 kts | 58° |
| 2026-05-07 08:21 | 32.08748 | 132.32085 | 34947 ft | 488 kts | 58° |
| 2026-05-07 08:22 | 32.12194 | 132.38984 | 34944 ft | 489 kts | 58° |
| 2026-05-07 08:22 | 32.15390 | 132.46068 | 34946 ft | 490 kts | 62° |
| 2026-05-07 08:23 | 32.18391 | 132.53303 | 34943 ft | 490 kts | 63° |
| 2026-05-07 08:23 | 32.21393 | 132.60531 | 34945 ft | 491 kts | 62° |
| 2026-05-07 08:24 | 32.24426 | 132.67747 | 34942 ft | 491 kts | 62° |
| 2026-05-07 08:24 | 32.27476 | 132.74973 | 34937 ft | 491 kts | 62° |
| 2026-05-07 08:25 | 32.30022 | 132.81015 | 34938 ft | 491 kts | 62° |
| 2026-05-07 08:25 | 32.33041 | 132.88197 | 34943 ft | 491 kts | 62° |
| 2026-05-07 08:26 | 32.37588 | 132.99048 | 34941 ft | 491 kts | 62° |
| 2026-05-07 08:26 | 32.40123 | 133.05112 | 34941 ft | 490 kts | 63° |
| 2026-05-07 08:28 | 32.50057 | 133.28974 | 34942 ft | 489 kts | 63° |
| 2026-05-07 08:28 | 32.53065 | 133.36233 | 34942 ft | 488 kts | 63° |
| 2026-05-07 08:29 | 32.56053 | 133.43454 | 34944 ft | 488 kts | 63° |
| 2026-05-07 08:29 | 32.59050 | 133.50663 | 34944 ft | 487 kts | 63° |
| 2026-05-07 08:30 | 32.62036 | 133.57815 | 34946 ft | 487 kts | 63° |
| 2026-05-07 08:30 | 32.65027 | 133.65036 | 34943 ft | 487 kts | 63° |
| 2026-05-07 08:31 | 32.67976 | 133.72264 | 34946 ft | 487 kts | 63° |
| 2026-05-07 08:31 | 32.70919 | 133.79494 | 34950 ft | 486 kts | 63° |
| 2026-05-07 08:32 | 32.73861 | 133.86726 | 34951 ft | 486 kts | 63° |
| 2026-05-07 08:32 | 32.76804 | 133.93973 | 34950 ft | 486 kts | 64° |
| 2026-05-07 08:33 | 32.79261 | 134.00032 | 34952 ft | 486 kts | 64° |
| 2026-05-07 08:33 | 32.82169 | 134.07307 | 34946 ft | 487 kts | 67° |
| 2026-05-07 08:34 | 32.84233 | 134.14900 | 34949 ft | 486 kts | 74° |
| 2026-05-07 08:34 | 32.86085 | 134.22632 | 34948 ft | 486 kts | 74° |
| 2026-05-07 08:35 | 32.87962 | 134.30355 | 34950 ft | 486 kts | 74° |
| 2026-05-07 08:35 | 32.89872 | 134.38069 | 34950 ft | 486 kts | 73° |
| 2026-05-07 08:36 | 32.91789 | 134.45791 | 34952 ft | 486 kts | 73° |
| 2026-05-07 08:36 | 32.93696 | 134.53505 | 34952 ft | 486 kts | 74° |
| 2026-05-07 08:37 | 32.95598 | 134.61228 | 34954 ft | 486 kts | 74° |
| 2026-05-07 08:37 | 32.97495 | 134.68957 | 34954 ft | 486 kts | 74° |
| 2026-05-07 08:38 | 32.99388 | 134.76689 | 34951 ft | 486 kts | 74° |
| 2026-05-07 08:38 | 33.01271 | 134.84412 | 34952 ft | 486 kts | 74° |
| 2026-05-07 08:39 | 33.03146 | 134.92149 | 34955 ft | 486 kts | 74° |
| 2026-05-07 08:39 | 33.05013 | 134.99875 | 34954 ft | 485 kts | 74° |
| 2026-05-07 08:40 | 33.06878 | 135.07610 | 34951 ft | 485 kts | 74° |
| 2026-05-07 08:40 | 33.08785 | 135.15314 | 34942 ft | 485 kts | 68° |
| 2026-05-07 08:41 | 33.10275 | 135.18906 | 34954 ft | 482 kts | 56° |
| 2026-05-07 08:41 | 33.12280 | 135.22100 | 34955 ft | 480 kts | 45° |
| 2026-05-07 08:41 | 33.17370 | 135.27185 | 34491 ft | 477 kts | 33° |
| 2026-05-07 08:42 | 33.20043 | 135.29495 | 34087 ft | 472 kts | 33° |
| 2026-05-07 08:42 | 33.22692 | 135.31789 | 33625 ft | 468 kts | 34° |
| 2026-05-07 08:42 | 33.25307 | 135.34092 | 33172 ft | 465 kts | 34° |
| 2026-05-07 08:42 | 33.27888 | 135.36401 | 32730 ft | 461 kts | 35° |
| 2026-05-07 08:43 | 33.30433 | 135.38701 | 32302 ft | 458 kts | 35° |
| 2026-05-07 08:43 | 33.32963 | 135.40994 | 31875 ft | 454 kts | 35° |
| 2026-05-07 08:43 | 33.35475 | 135.43269 | 31465 ft | 451 kts | 36° |
| 2026-05-07 08:43 | 33.37935 | 135.45498 | 31108 ft | 447 kts | 36° |
| 2026-05-07 08:44 | 33.40424 | 135.47757 | 30751 ft | 442 kts | 36° |
| 2026-05-07 08:44 | 33.42844 | 135.49955 | 30362 ft | 440 kts | 36° |
| 2026-05-07 08:44 | 33.45272 | 135.52162 | 29945 ft | 437 kts | 36° |
| 2026-05-07 08:44 | 33.47686 | 135.54359 | 29471 ft | 435 kts | 36° |
| 2026-05-07 08:45 | 33.50086 | 135.56544 | 29017 ft | 431 kts | 36° |
| 2026-05-07 08:45 | 33.52463 | 135.58710 | 28587 ft | 428 kts | 36° |
| 2026-05-07 08:45 | 33.54825 | 135.60864 | 28169 ft | 425 kts | 36° |
| 2026-05-07 08:45 | 33.57168 | 135.63002 | 27741 ft | 421 kts | 36° |
| 2026-05-07 08:46 | 33.59491 | 135.65123 | 27314 ft | 418 kts | 36° |
| 2026-05-07 08:46 | 33.61797 | 135.67230 | 26909 ft | 415 kts | 36° |
| 2026-05-07 08:46 | 33.64082 | 135.69320 | 26505 ft | 412 kts | 36° |
| 2026-05-07 08:46 | 33.66357 | 135.71400 | 26106 ft | 409 kts | 35° |
| 2026-05-07 08:47 | 33.68612 | 135.73456 | 25777 ft | 405 kts | 35° |
| 2026-05-07 08:47 | 33.70852 | 135.75482 | 25406 ft | 402 kts | 34° |
| 2026-05-07 08:47 | 33.73084 | 135.77496 | 25025 ft | 400 kts | 34° |
| 2026-05-07 08:47 | 33.75301 | 135.79498 | 24633 ft | 398 kts | 35° |
| 2026-05-07 08:48 | 33.77508 | 135.81495 | 24212 ft | 397 kts | 35° |
| 2026-05-07 08:48 | 33.79704 | 135.83484 | 23832 ft | 395 kts | 34° |
| 2026-05-07 08:48 | 33.81892 | 135.85468 | 23395 ft | 394 kts | 34° |
| 2026-05-07 08:48 | 33.84072 | 135.87446 | 22964 ft | 391 kts | 34° |
| 2026-05-07 08:49 | 33.86238 | 135.89413 | 22538 ft | 389 kts | 34° |
| 2026-05-07 08:49 | 33.88381 | 135.91357 | 22234 ft | 383 kts | 34° |
| 2026-05-07 08:49 | 33.90505 | 135.93281 | 21841 ft | 381 kts | 34° |
| 2026-05-07 08:49 | 33.92617 | 135.95194 | 21459 ft | 378 kts | 34° |
| 2026-05-07 08:50 | 33.94714 | 135.97095 | 21074 ft | 376 kts | 35° |
| 2026-05-07 08:50 | 33.96792 | 135.98980 | 20706 ft | 373 kts | 34° |
| 2026-05-07 08:50 | 33.98864 | 136.00862 | 20323 ft | 372 kts | 34° |
| 2026-05-07 08:50 | 34.00932 | 136.02741 | 19934 ft | 372 kts | 34° |
| 2026-05-07 08:51 | 34.02993 | 136.04616 | 19544 ft | 371 kts | 34° |
| 2026-05-07 08:51 | 34.05047 | 136.06485 | 19162 ft | 370 kts | 34° |
| 2026-05-07 08:51 | 34.07097 | 136.08351 | 18764 ft | 369 kts | 34° |
| 2026-05-07 08:51 | 34.09140 | 136.10213 | 18377 ft | 368 kts | 34° |
| 2026-05-07 08:52 | 34.11183 | 136.12076 | 17952 ft | 368 kts | 34° |
| 2026-05-07 08:52 | 34.13218 | 136.13933 | 17545 ft | 365 kts | 34° |
| 2026-05-07 08:52 | 34.15236 | 136.15776 | 17163 ft | 362 kts | 35° |
| 2026-05-07 08:52 | 34.17242 | 136.17608 | 16779 ft | 361 kts | 34° |
| 2026-05-07 08:53 | 34.19237 | 136.19430 | 16396 ft | 358 kts | 34° |
| 2026-05-07 08:53 | 34.21224 | 136.21242 | 16005 ft | 357 kts | 34° |
| 2026-05-07 08:53 | 34.23194 | 136.23033 | 15674 ft | 354 kts | 34° |
| 2026-05-07 08:53 | 34.25154 | 136.24816 | 15291 ft | 352 kts | 34° |
| 2026-05-07 08:54 | 34.27101 | 136.26587 | 14944 ft | 349 kts | 34° |
| 2026-05-07 08:54 | 34.29045 | 136.28357 | 14547 ft | 349 kts | 35° |
| 2026-05-07 08:54 | 34.30980 | 136.30121 | 14190 ft | 349 kts | 34° |
| 2026-05-07 08:54 | 34.32922 | 136.31892 | 13803 ft | 350 kts | 35° |
| 2026-05-07 08:55 | 34.34844 | 136.33646 | 13390 ft | 351 kts | 35° |
| 2026-05-07 08:55 | 34.36785 | 136.35419 | 13008 ft | 349 kts | 35° |
| 2026-05-07 08:55 | 34.38718 | 136.37187 | 12631 ft | 347 kts | 35° |
| 2026-05-07 08:55 | 34.40641 | 136.38945 | 12268 ft | 345 kts | 35° |
| 2026-05-07 08:56 | 34.42576 | 136.40660 | 11892 ft | 344 kts | 31° |
| 2026-05-07 08:56 | 34.44607 | 136.42185 | 11483 ft | 343 kts | 28° |
| 2026-05-07 08:56 | 34.46672 | 136.43620 | 11123 ft | 341 kts | 27° |
| 2026-05-07 08:56 | 34.48732 | 136.45029 | 10762 ft | 339 kts | 27° |
| 2026-05-07 08:57 | 34.50782 | 136.46439 | 10410 ft | 338 kts | 28° |
| 2026-05-07 08:57 | 34.52792 | 136.47837 | 10248 ft | 329 kts | 28° |
| 2026-05-07 08:57 | 34.54755 | 136.49212 | 10091 ft | 322 kts | 28° |
| 2026-05-07 08:57 | 34.56668 | 136.50560 | 9940 ft | 314 kts | 28° |
| 2026-05-07 08:58 | 34.58487 | 136.51847 | 9791 ft | 306 kts | 28° |
| 2026-05-07 08:58 | 34.60353 | 136.53167 | 9310 ft | 311 kts | 28° |
| 2026-05-07 08:58 | 34.62223 | 136.54493 | 8949 ft | 311 kts | 28° |
| 2026-05-07 08:58 | 34.64084 | 136.55814 | 8637 ft | 309 kts | 29° |
| 2026-05-07 08:59 | 34.65930 | 136.57127 | 8330 ft | 307 kts | 29° |
| 2026-05-07 08:59 | 34.67765 | 136.58432 | 8028 ft | 305 kts | 29° |
| 2026-05-07 08:59 | 34.69588 | 136.59729 | 7725 ft | 303 kts | 29° |
| 2026-05-07 08:59 | 34.71398 | 136.61018 | 7426 ft | 301 kts | 29° |
| 2026-05-07 09:00 | 34.73196 | 136.62299 | 7132 ft | 299 kts | 29° |
| 2026-05-07 09:00 | 34.74982 | 136.63573 | 6843 ft | 297 kts | 29° |
| 2026-05-07 09:00 | 34.76760 | 136.64840 | 6552 ft | 295 kts | 29° |
| 2026-05-07 09:00 | 34.78522 | 136.66097 | 6258 ft | 293 kts | 29° |
| 2026-05-07 09:01 | 34.80273 | 136.67347 | 5954 ft | 291 kts | 29° |
| 2026-05-07 09:01 | 34.82016 | 136.68592 | 5652 ft | 289 kts | 29° |
| 2026-05-07 09:01 | 34.83809 | 136.69645 | 5350 ft | 285 kts | 12° |
| 2026-05-07 09:01 | 34.85745 | 136.69765 | 5091 ft | 277 kts | 349° |
| 2026-05-07 09:02 | 34.87622 | 136.69323 | 4822 ft | 273 kts | 346° |
| 2026-05-07 09:02 | 34.89477 | 136.68845 | 4529 ft | 272 kts | 346° |
| 2026-05-07 09:02 | 34.91327 | 136.68380 | 4238 ft | 270 kts | 347° |
| 2026-05-07 09:02 | 34.93165 | 136.67928 | 3975 ft | 268 kts | 346° |
| 2026-05-07 09:03 | 34.94978 | 136.67590 | 3859 ft | 261 kts | 356° |
| 2026-05-07 09:03 | 34.96773 | 136.67662 | 3729 ft | 255 kts | 2° |
| 2026-05-07 09:03 | 34.98475 | 136.68125 | 3598 ft | 251 kts | 26° |
| 2026-05-07 09:03 | 34.99780 | 136.69490 | 3401 ft | 249 kts | 54° |
| 2026-05-07 09:04 | 35.00499 | 136.71389 | 3186 ft | 246 kts | 75° |
| 2026-05-07 09:04 | 35.00853 | 136.73383 | 3036 ft | 234 kts | 84° |
| 2026-05-07 09:04 | 35.00575 | 136.75280 | 2657 ft | 226 kts | 125° |
| 2026-05-07 09:04 | 34.99467 | 136.76497 | 2471 ft | 211 kts | 150° |
| 2026-05-07 09:05 | 34.98235 | 136.77370 | 2210 ft | 197 kts | 159° |
| 2026-05-07 09:05 | 34.96963 | 136.77810 | 1956 ft | 184 kts | 169° |
| 2026-05-07 09:05 | 34.95776 | 136.78121 | 1769 ft | 164 kts | 170° |
| 2026-05-07 09:05 | 34.94710 | 136.78384 | 1530 ft | 149 kts | 170° |
| 2026-05-07 09:06 | 34.93733 | 136.78623 | 1321 ft | 139 kts | 170° |
| 2026-05-07 09:06 | 34.92766 | 136.78857 | 1138 ft | 146 kts | 171° |
| 2026-05-07 09:06 | 34.91761 | 136.79100 | 965 ft | 148 kts | 169° |
| 2026-05-07 09:06 | 34.90762 | 136.79340 | 774 ft | 148 kts | 169° |
| 2026-05-07 09:07 | 34.89755 | 136.79589 | 581 ft | 144 kts | 169° |
| 2026-05-07 09:07 | 34.88779 | 136.79828 | 373 ft | 141 kts | 168° |
| 2026-05-07 09:07 | 34.87820 | 136.80059 | 145 ft | 139 kts | 168° |
| 2026-05-07 09:07 | 34.86902 | 136.80281 | 25 ft | 128 kts | 168° |
| 2026-05-07 09:08 | 34.86142 | 136.80467 | 26 ft | 94 kts | 169° |
| 2026-05-07 09:08 | 34.85622 | 136.80600 | 21 ft | 53 kts | 158° |
| 2026-05-07 09:08 | 34.85408 | 136.80797 | 25 ft | 23 kts | 111° |
| 2026-05-07 09:08 | 34.85493 | 136.80867 | 27 ft | 18 kts | 349° |
| 2026-05-07 09:09 | 34.85612 | 136.80839 | 27 ft | 17 kts | 347° |
| 2026-05-07 09:09 | 34.85725 | 136.80810 | 27 ft | 16 kts | 348° |
| 2026-05-07 09:09 | 34.85834 | 136.80784 | 27 ft | 16 kts | 349° |
| 2026-05-07 09:09 | 34.85940 | 136.80759 | 27 ft | 15 kts | 349° |
| 2026-05-07 09:10 | 34.86031 | 136.80780 | 27 ft | 15 kts | 62° |
| 2026-05-07 09:10 | 34.85990 | 136.80870 | 27 ft | 13 kts | 135° |
| 2026-05-07 09:10 | 34.85992 | 136.80976 | 27 ft | 13 kts | 78° |
| 2026-05-07 09:10 | 34.85982 | 136.81042 | 27 ft | 7 kts | 158° |
| 2026-05-07 09:11 | 34.85935 | 136.81051 | 27 ft | 6 kts | 172° |
| 2026-05-07 09:11 | 34.85922 | 136.81053 | 27 ft | 0 kts | 173° |